Time;durP1;ratioP1;P1;durP2;ratioP2;P2;SDS_P1;SDS_P2;PMS_P1;PMS_P2;Temp;Humidity;BMP_temperature;BMP_pressure;BME280_temperature;BME280_humidity;BME280_pressure;Samples;Min_cycle;Max_cycle;Signal;HPM_P1;HPM_P2
2023/03/20 00:01:12;;;;;;;9.00;8.00;;;8.40;99.90;;;;;;5090608;28;20748;-78
2023/03/20 00:03:44;;;;;;;9.53;8.13;;;8.40;99.90;;;;;;5091031;28;20213;-78
2023/03/20 00:06:16;;;;;;;9.97;7.93;;;8.40;99.90;;;;;;5091675;28;20257;-77
2023/03/20 00:08:45;;;;;;;8.70;7.80;;;8.40;99.90;;;;;;5094771;28;20203;-77
2023/03/20 00:11:29;;;;;;;8.60;7.07;;;8.40;99.90;;;;;;5095055;28;20207;-77
2023/03/20 00:14:01;;;;;;;8.80;6.93;;;8.30;99.90;;;;;;5093530;28;20277;-78
2023/03/20 00:16:32;;;;;;;8.63;7.10;;;8.40;99.90;;;;;;5094304;28;20302;-75
2023/03/20 00:19:00;;;;;;;8.63;7.10;;;8.40;99.90;;;;;;5095057;28;20221;-76
2023/03/20 00:21:28;;;;;;;9.13;7.07;;;8.40;99.90;;;;;;5094936;28;20203;-78
2023/03/20 00:23:57;;;;;;;8.30;6.90;;;8.40;99.90;;;;;;5094790;28;20210;-77
2023/03/20 00:26:30;;;;;;;7.50;6.77;;;8.40;99.90;;;;;;5094193;28;20301;-76
2023/03/20 00:29:02;;;;;;;7.60;6.80;;;8.30;99.90;;;;;;5094845;28;20608;-76
2023/03/20 00:31:33;;;;;;;8.53;7.07;;;8.30;99.90;;;;;;5095005;28;20186;-76
2023/03/20 00:34:04;;;;;;;9.03;7.37;;;8.30;99.90;;;;;;5093726;28;20219;-79
2023/03/20 00:36:32;;;;;;;9.33;7.27;;;8.30;99.90;;;;;;5094575;28;20603;-78
2023/03/20 00:39:01;;;;;;;8.43;7.13;;;8.20;99.90;;;;;;5094702;28;20237;-77
2023/03/20 00:41:32;;;;;;;8.53;7.33;;;8.20;99.90;;;;;;5095003;28;20244;-77
2023/03/20 00:44:04;;;;;;;9.03;7.30;;;8.20;99.90;;;;;;5093615;28;20237;-79
2023/03/20 00:46:37;;;;;;;8.20;7.17;;;8.20;99.90;;;;;;5094678;28;20271;-78
2023/03/20 00:49:06;;;;;;;8.20;7.17;;;8.20;99.90;;;;;;5094286;28;20605;-77
2023/03/20 00:51:35;;;;;;;8.97;7.27;;;8.20;99.90;;;;;;5093353;28;20524;-78
2023/03/20 00:54:10;;;;;;;7.83;7.03;;;8.20;99.90;;;;;;5094064;28;20592;-78
2023/03/20 00:56:43;;;;;;;9.07;7.50;;;8.20;99.90;;;;;;5094203;28;20226;-76
2023/03/20 00:59:18;;;;;;;10.10;7.53;;;8.20;99.90;;;;;;5093409;28;20604;-77
2023/03/20 01:01:46;;;;;;;7.97;7.10;;;8.20;99.90;;;;;;5094223;28;20207;-78
2023/03/20 01:04:17;;;;;;;9.77;7.37;;;8.20;99.90;;;;;;5094366;28;20203;-78
2023/03/20 01:06:47;;;;;;;8.07;7.10;;;8.10;99.90;;;;;;5093533;28;20211;-78
2023/03/20 01:09:15;;;;;;;9.10;7.17;;;8.20;99.90;;;;;;5094302;28;20257;-77
2023/03/20 01:11:45;;;;;;;7.90;6.80;;;8.20;99.90;;;;;;5093888;28;20310;-77
2023/03/20 01:14:16;;;;;;;8.20;7.40;;;8.20;99.90;;;;;;5094159;28;20223;-77
2023/03/20 01:16:45;;;;;;;8.23;6.67;;;8.10;99.90;;;;;;5093219;28;20211;-78
2023/03/20 01:19:15;;;;;;;7.93;6.73;;;8.10;99.90;;;;;;5093201;28;20213;-76
2023/03/20 01:21:43;;;;;;;7.60;6.80;;;8.10;99.90;;;;;;5094056;28;20234;-77
2023/03/20 01:24:11;;;;;;;9.40;7.00;;;8.10;99.90;;;;;;5093300;28;20203;-78
2023/03/20 01:26:42;;;;;;;9.13;7.40;;;8.10;99.90;;;;;;5092868;28;20237;-77
2023/03/20 01:29:20;;;;;;;8.50;6.97;;;8.10;99.90;;;;;;5093770;28;20195;-77
2023/03/20 01:31:48;;;;;;;9.30;7.23;;;8.10;99.90;;;;;;5093601;28;20328;-78
2023/03/20 01:34:18;;;;;;;7.27;6.40;;;8.10;99.90;;;;;;5093323;28;20561;-78
2023/03/20 01:36:48;;;;;;;9.17;6.80;;;8.10;99.90;;;;;;5093483;28;20215;-77
2023/03/20 01:39:17;;;;;;;7.80;6.30;;;8.10;99.90;;;;;;5093626;28;20293;-76
2023/03/20 01:41:47;;;;;;;8.83;6.80;;;8.10;99.90;;;;;;5092617;28;20555;-77
2023/03/20 01:44:22;;;;;;;7.00;6.30;;;8.10;99.90;;;;;;5093122;28;20215;-77
2023/03/20 01:46:51;;;;;;;7.87;6.40;;;8.10;99.90;;;;;;5093522;28;20290;-77
2023/03/20 01:49:57;;;;;;;7.57;6.77;;;8.10;99.90;;;;;;5093278;28;20222;-77
2023/03/20 01:52:25;;;;;;;7.97;6.70;;;8.10;99.90;;;;;;5092499;28;20206;-78
2023/03/20 01:54:53;;;;;;;8.37;6.13;;;8.00;99.90;;;;;;5093230;28;20317;-78
2023/03/20 01:57:24;;;;;;;8.10;6.73;;;8.10;99.90;;;;;;5092938;28;20207;-78
2023/03/20 02:00:00;;;;;;;7.43;6.40;;;8.00;99.90;;;;;;5093528;28;20282;-79
2023/03/20 02:02:30;;;;;;;8.13;6.40;;;8.00;99.90;;;;;;5092278;28;20649;-77
2023/03/20 02:05:03;;;;;;;7.47;6.77;;;8.00;99.90;;;;;;5092768;28;20285;-76
2023/03/20 02:07:33;;;;;;;6.57;5.87;;;8.00;99.90;;;;;;5092741;28;20646;-77
2023/03/20 02:10:02;;;;;;;6.87;5.83;;;8.00;99.90;;;;;;5092034;28;20207;-78
2023/03/20 02:12:30;;;;;;;6.50;5.77;;;8.00;99.90;;;;;;5092386;28;20213;-77
2023/03/20 02:15:00;;;;;;;7.60;5.70;;;7.90;99.90;;;;;;5092573;28;20300;-78
2023/03/20 02:17:30;;;;;;;8.37;5.67;;;8.00;99.90;;;;;;5092585;28;20218;-76
2023/03/20 02:20:06;;;;;;;7.33;5.97;;;8.00;99.90;;;;;;5091053;28;20306;-79
2023/03/20 02:23:09;;;;;;;7.10;5.67;;;8.00;99.90;;;;;;5092575;28;20199;-77
2023/03/20 02:26:11;;;;;;;6.83;5.87;;;8.00;99.90;;;;;;5092787;28;20193;-78
2023/03/20 02:29:13;;;;;;;6.13;5.07;;;8.00;99.90;;;;;;5091321;28;20207;-77
2023/03/20 02:32:15;;;;;;;6.20;5.60;;;8.00;99.90;;;;;;5092403;28;20289;-79
2023/03/20 02:35:31;;;;;;;7.07;5.70;;;7.90;99.90;;;;;;5092187;28;20604;-77
2023/03/20 02:38:37;;;;;;;5.67;4.90;;;7.90;99.90;;;;;;5091633;28;20209;-78
2023/03/20 02:41:15;;;;;;;5.70;5.07;;;7.90;99.90;;;;;;5092177;28;20207;-78
2023/03/20 02:43:48;;;;;;;6.37;5.13;;;7.90;99.90;;;;;;5091946;28;20664;-76
2023/03/20 02:46:28;;;;;;;5.20;4.70;;;7.90;99.90;;;;;;5091646;28;20546;-76
2023/03/20 02:49:01;;;;;;;6.10;4.83;;;7.90;99.90;;;;;;5092333;28;20214;-78
2023/03/20 02:51:37;;;;;;;5.90;4.70;;;7.90;99.90;;;;;;5092113;28;20207;-77
2023/03/20 02:54:14;;;;;;;5.70;4.67;;;7.90;99.90;;;;;;5091563;28;20210;-76
2023/03/20 02:56:50;;;;;;;6.60;4.60;;;7.90;99.90;;;;;;5091356;28;20234;-77
2023/03/20 02:59:26;;;;;;;7.00;5.00;;;7.90;99.90;;;;;;5092263;28;20199;-77
2023/03/20 03:02:01;;;;;;;5.60;4.73;;;7.90;99.90;;;;;;5091964;28;20211;-77
2023/03/20 03:04:33;;;;;;;5.23;4.73;;;7.80;99.90;;;;;;5091193;28;20207;-77
2023/03/20 03:07:03;;;;;;;6.07;4.53;;;7.80;99.90;;;;;;5091965;28;20626;-78
2023/03/20 03:09:36;;;;;;;5.60;4.93;;;7.90;99.90;;;;;;5091987;28;20191;-78
2023/03/20 03:12:10;;;;;;;5.37;4.67;;;7.90;99.90;;;;;;5090676;28;20381;-76
2023/03/20 03:14:42;;;;;;;6.13;5.27;;;7.80;99.90;;;;;;5091686;28;20595;-77
2023/03/20 03:17:12;;;;;;;5.70;4.57;;;7.80;99.90;;;;;;5091968;28;20205;-78
2023/03/20 03:19:44;;;;;;;5.43;4.80;;;7.80;99.90;;;;;;5091714;28;20703;-77
2023/03/20 03:22:13;;;;;;;5.80;4.20;;;7.80;99.90;;;;;;5090895;28;20207;-76
2023/03/20 03:24:44;;;;;;;5.00;4.43;;;7.80;99.90;;;;;;5091842;28;20238;-76
2023/03/20 03:27:18;;;;;;;4.93;4.43;;;7.70;99.90;;;;;;5091708;28;20231;-77
2023/03/20 03:29:52;;;;;;;6.00;4.40;;;7.70;99.90;;;;;;5091020;28;20294;-78
2023/03/20 03:32:31;;;;;;;4.90;4.20;;;7.70;99.90;;;;;;5091848;28;20206;-77
2023/03/20 03:35:01;;;;;;;6.03;4.73;;;7.70;99.90;;;;;;5091905;28;20207;-77
2023/03/20 03:37:42;;;;;;;4.97;3.93;;;7.70;99.90;;;;;;5091022;28;20709;-79
2023/03/20 03:40:19;;;;;;;4.77;3.80;;;7.70;99.90;;;;;;5091504;28;20601;-78
2023/03/20 03:42:55;;;;;;;4.63;3.70;;;7.70;99.90;;;;;;5094370;28;20221;-77
2023/03/20 03:45:32;;;;;;;5.83;3.97;;;7.70;99.90;;;;;;5094459;28;20629;-79
2023/03/20 03:48:06;;;;;;;4.73;3.90;;;7.70;99.90;;;;;;5095776;28;20190;-78
2023/03/20 03:50:40;;;;;;;4.60;3.93;;;7.70;99.90;;;;;;5095561;28;20246;-78
2023/03/20 03:53:13;;;;;;;4.63;3.93;;;7.70;99.90;;;;;;5094420;28;20208;-77
2023/03/20 03:55:46;;;;;;;4.50;4.10;;;7.70;99.90;;;;;;5095219;28;20221;-77
2023/03/20 03:58:20;;;;;;;4.23;3.83;;;7.70;99.90;;;;;;5094918;28;20712;-79
2023/03/20 04:00:52;;;;;;;4.30;3.90;;;7.70;99.90;;;;;;5094460;28;20202;-77
2023/03/20 04:03:24;;;;;;;4.53;3.90;;;7.70;99.90;;;;;;5094727;28;20207;-77
2023/03/20 04:05:54;;;;;;;5.33;4.00;;;7.70;99.90;;;;;;5095055;28;20197;-78
2023/03/20 04:08:22;;;;;;;4.50;4.10;;;7.70;99.90;;;;;;5095417;28;20199;-77
2023/03/20 04:10:51;;;;;;;4.67;4.20;;;7.70;99.90;;;;;;5094660;28;20561;-78
2023/03/20 04:13:19;;;;;;;4.57;4.10;;;7.70;99.90;;;;;;5094815;28;20281;-76
2023/03/20 04:15:48;;;;;;;4.10;3.70;;;7.70;99.90;;;;;;5095243;28;20226;-77
2023/03/20 04:18:18;;;;;;;5.23;3.90;;;7.70;99.90;;;;;;5095033;28;20289;-79
2023/03/20 04:20:47;;;;;;;4.37;3.97;;;7.70;99.90;;;;;;5094959;28;20637;-77
2023/03/20 04:23:15;;;;;;;4.70;4.17;;;7.70;99.90;;;;;;5095074;28;20210;-76
2023/03/20 04:25:43;;;;;;;4.40;4.00;;;7.70;99.90;;;;;;5095174;28;20221;-77
2023/03/20 04:28:15;;;;;;;4.57;3.93;;;7.70;99.90;;;;;;5093958;28;20238;-77
2023/03/20 04:30:47;;;;;;;4.43;3.87;;;7.70;99.90;;;;;;5094656;28;20557;-77
2023/03/20 04:33:15;;;;;;;4.63;3.57;;;7.70;99.90;;;;;;5094847;28;20194;-77
2023/03/20 04:35:43;;;;;;;4.07;3.67;;;7.70;99.90;;;;;;5094103;28;20226;-76
2023/03/20 04:38:11;;;;;;;4.70;3.70;;;7.70;99.90;;;;;;5094636;28;20623;-77
2023/03/20 04:40:40;;;;;;;3.93;3.53;;;7.70;99.90;;;;;;5094351;28;20664;-77
2023/03/20 04:43:08;;;;;;;5.57;3.87;;;7.70;99.90;;;;;;5093445;28;20223;-78
2023/03/20 04:45:38;;;;;;;4.80;3.80;;;7.70;99.90;;;;;;5094808;28;20233;-78
2023/03/20 04:48:07;;;;;;;5.03;3.90;;;7.70;99.90;;;;;;5094394;28;20210;-78
2023/03/20 04:50:35;;;;;;;3.97;3.57;;;7.70;99.90;;;;;;5094760;28;20205;-75
2023/03/20 04:53:04;;;;;;;4.80;3.77;;;7.70;99.90;;;;;;5094072;28;20297;-78
2023/03/20 04:55:32;;;;;;;5.13;3.80;;;7.70;99.90;;;;;;5097255;28;20236;-77
2023/03/20 04:58:00;;;;;;;4.10;3.70;;;7.70;99.90;;;;;;5095675;28;20722;-77
2023/03/20 05:00:28;;;;;;;5.00;3.87;;;7.80;99.90;;;;;;5093477;28;20214;-78
2023/03/20 05:02:58;;;;;;;4.90;4.00;;;7.70;99.90;;;;;;5094358;28;20569;-76
2023/03/20 05:05:26;;;;;;;4.43;3.60;;;7.80;99.90;;;;;;5094593;28;20596;-77
2023/03/20 05:07:54;;;;;;;4.77;4.03;;;7.70;99.90;;;;;;5094470;28;20227;-77
2023/03/20 05:10:22;;;;;;;5.03;3.80;;;7.70;99.90;;;;;;5094312;28;20242;-78
2023/03/20 05:12:50;;;;;;;4.40;3.90;;;7.70;99.90;;;;;;5096832;28;20553;-77
2023/03/20 05:15:19;;;;;;;6.23;3.93;;;7.70;99.90;;;;;;5097651;28;20222;-77
2023/03/20 05:17:48;;;;;;;5.23;3.97;;;7.70;99.90;;;;;;5095113;28;20691;-76
2023/03/20 05:20:20;;;;;;;4.57;4.00;;;7.70;99.90;;;;;;5096076;28;20234;-78
2023/03/20 05:22:49;;;;;;;5.00;4.07;;;7.70;99.90;;;;;;5096025;28;20219;-76
2023/03/20 05:25:17;;;;;;;4.80;3.90;;;7.70;99.90;;;;;;5094882;28;20211;-76
2023/03/20 05:27:47;;;;;;;4.50;3.80;;;7.70;99.90;;;;;;5093419;28;20219;-77
2023/03/20 05:30:16;;;;;;;4.60;4.03;;;7.70;99.90;;;;;;5094344;28;20665;-77
2023/03/20 05:32:44;;;;;;;4.50;3.60;;;7.70;99.90;;;;;;5093892;28;20294;-77
2023/03/20 05:35:12;;;;;;;4.17;3.73;;;7.80;99.90;;;;;;5093757;28;20254;-77
2023/03/20 05:37:42;;;;;;;6.13;3.50;;;7.80;99.90;;;;;;5093170;28;20235;-76
2023/03/20 05:40:13;;;;;;;4.70;3.80;;;7.80;99.90;;;;;;5093649;28;20682;-76
2023/03/20 05:42:41;;;;;;;4.17;3.70;;;7.70;99.90;;;;;;5093420;28;20226;-77
2023/03/20 05:45:10;;;;;;;4.17;3.70;;;7.80;99.90;;;;;;5093522;28;20210;-78
2023/03/20 05:47:38;;;;;;;4.97;3.63;;;7.70;99.90;;;;;;5094068;28;20230;-76
2023/03/20 05:50:07;;;;;;;5.53;3.87;;;7.80;99.90;;;;;;5094723;28;20211;-77
2023/03/20 05:52:35;;;;;;;5.20;3.93;;;7.80;99.90;;;;;;5094191;28;20278;-76
2023/03/20 05:55:06;;;;;;;4.07;3.67;;;7.70;99.90;;;;;;5096926;28;20573;-77
2023/03/20 05:57:34;;;;;;;4.10;3.70;;;7.80;99.90;;;;;;5096895;28;20201;-78
2023/03/20 06:00:05;;;;;;;5.13;3.40;;;7.80;99.90;;;;;;5096452;28;20221;-76
2023/03/20 06:02:33;;;;;;;4.33;3.40;;;7.80;99.90;;;;;;5098987;28;20629;-76
2023/03/20 06:05:02;;;;;;;4.67;3.53;;;7.80;99.90;;;;;;5095133;28;20206;-78
2023/03/20 06:07:30;;;;;;;6.23;3.57;;;7.80;99.90;;;;;;5092862;28;20217;-77
2023/03/20 06:09:58;;;;;;;5.13;3.67;;;7.80;99.90;;;;;;5094515;28;20203;-77
2023/03/20 06:12:28;;;;;;;5.63;3.90;;;7.80;99.90;;;;;;5095889;28;20207;-78
2023/03/20 06:14:56;;;;;;;3.90;3.50;;;7.70;99.90;;;;;;5096327;28;20692;-77
2023/03/20 06:17:24;;;;;;;6.67;3.60;;;7.70;99.90;;;;;;5093209;28;20581;-77
2023/03/20 06:19:53;;;;;;;3.87;3.50;;;7.70;99.90;;;;;;5093349;28;20211;-77
2023/03/20 06:22:21;;;;;;;4.80;3.90;;;7.70;99.90;;;;;;5095066;28;20203;-76
2023/03/20 06:24:49;;;;;;;4.27;3.87;;;7.70;99.90;;;;;;5094947;28;20222;-76
2023/03/20 06:27:17;;;;;;;4.13;3.70;;;7.70;99.90;;;;;;5093754;28;20651;-77
2023/03/20 06:29:47;;;;;;;5.63;4.10;;;7.80;99.90;;;;;;5093131;28;20258;-78
2023/03/20 06:32:16;;;;;;;4.67;4.17;;;7.70;99.90;;;;;;5093436;28;20211;-76
2023/03/20 06:34:47;;;;;;;6.00;4.67;;;7.70;99.90;;;;;;5096744;28;20214;-76
2023/03/20 06:37:16;;;;;;;5.00;4.50;;;7.70;99.90;;;;;;5094478;28;20218;-76
2023/03/20 06:39:44;;;;;;;7.20;4.90;;;7.80;99.90;;;;;;5094354;28;20692;-76
2023/03/20 06:42:15;;;;;;;5.20;4.70;;;7.80;99.90;;;;;;5093726;28;20226;-76
2023/03/20 06:44:43;;;;;;;5.70;4.30;;;7.80;99.90;;;;;;5093194;28;20289;-76
2023/03/20 06:47:13;;;;;;;6.10;5.10;;;7.80;99.90;;;;;;5079433;28;20291;-78
2023/03/20 06:49:41;;;;;;;7.00;4.77;;;7.80;99.90;;;;;;5073385;28;20585;-78
2023/03/20 06:52:16;;;;;;;7.00;4.50;;;7.90;99.90;;;;;;5071820;28;20630;-79
2023/03/20 06:54:46;;;;;;;5.83;4.80;;;7.90;99.90;;;;;;5080706;28;20249;-77
2023/03/20 06:57:16;;;;;;;5.97;4.83;;;7.90;99.90;;;;;;5092124;28;20292;-76
2023/03/20 06:59:44;;;;;;;6.37;4.90;;;8.00;99.90;;;;;;5092027;28;20225;-77
2023/03/20 07:02:15;;;;;;;5.33;4.60;;;8.00;99.90;;;;;;5091616;28;20742;-77
2023/03/20 07:04:43;;;;;;;5.87;5.00;;;8.10;99.90;;;;;;5091142;28;20294;-77
2023/03/20 07:07:11;;;;;;;5.60;5.10;;;8.10;99.90;;;;;;5092052;28;20203;-76
2023/03/20 07:09:39;;;;;;;6.00;4.80;;;8.20;99.90;;;;;;5092326;28;20301;-78
2023/03/20 07:12:12;;;;;;;6.30;4.70;;;8.20;99.90;;;;;;5091162;28;20643;-77
2023/03/20 07:14:41;;;;;;;5.87;4.80;;;8.30;99.90;;;;;;5092119;28;20217;-75
2023/03/20 07:17:10;;;;;;;5.27;4.77;;;8.40;99.90;;;;;;5091633;28;20223;-78
2023/03/20 07:19:40;;;;;;;5.33;4.83;;;8.50;99.90;;;;;;5091551;28;20206;-78
2023/03/20 07:22:15;;;;;;;5.37;4.63;;;8.60;99.90;;;;;;5090338;28;20623;-78
2023/03/20 07:24:43;;;;;;;5.23;4.50;;;8.70;99.90;;;;;;5091985;28;20218;-77
2023/03/20 07:27:14;;;;;;;4.87;4.47;;;8.80;99.90;;;;;;5092153;28;20231;-77
2023/03/20 07:29:42;;;;;;;5.80;4.57;;;9.00;99.90;;;;;;5090976;28;20207;-77
2023/03/20 07:32:10;;;;;;;5.40;4.67;;;8.90;99.90;;;;;;5091771;28;20298;-77
2023/03/20 07:34:40;;;;;;;5.60;4.77;;;9.00;99.90;;;;;;5092102;28;20210;-78
2023/03/20 07:37:09;;;;;;;6.50;4.90;;;9.00;99.90;;;;;;5091850;28;20284;-78
2023/03/20 07:39:37;;;;;;;5.73;4.63;;;9.00;99.90;;;;;;5091264;28;20636;-77
2023/03/20 07:42:05;;;;;;;5.87;5.27;;;9.00;99.90;;;;;;5091662;28;20210;-77
2023/03/20 07:44:34;;;;;;;5.60;5.10;;;9.00;99.90;;;;;;5091663;28;20219;-78
2023/03/20 07:47:02;;;;;;;5.40;4.90;;;9.00;99.90;;;;;;5093114;28;20219;-79
2023/03/20 07:49:30;;;;;;;5.90;4.97;;;9.00;99.90;;;;;;5091615;28;20209;-79
2023/03/20 07:51:59;;;;;;;5.97;5.37;;;8.90;99.90;;;;;;5091723;28;20306;-77
2023/03/20 07:54:28;;;;;;;5.93;5.43;;;8.80;99.90;;;;;;5091876;28;20311;-77
2023/03/20 07:56:56;;;;;;;6.40;5.80;;;8.80;99.90;;;;;;5090809;28;20280;-78
2023/03/20 07:59:24;;;;;;;6.30;5.70;;;8.70;99.90;;;;;;5092096;28;20211;-75
2023/03/20 08:01:52;;;;;;;6.63;6.00;;;8.70;99.90;;;;;;5091667;28;20230;-77
2023/03/20 08:04:21;;;;;;;9.23;6.17;;;8.80;99.90;;;;;;5091022;28;20217;-77
2023/03/20 08:06:54;;;;;;;8.33;6.63;;;8.90;99.90;;;;;;5091443;28;20209;-76
2023/03/20 08:09:23;;;;;;;7.20;6.50;;;9.00;99.90;;;;;;5091694;28;20214;-77
2023/03/20 08:11:52;;;;;;;9.13;6.50;;;9.00;99.90;;;;;;5090662;28;20539;-77
2023/03/20 08:14:20;;;;;;;8.20;7.00;;;9.10;99.90;;;;;;5091803;28;20226;-77
2023/03/20 08:16:48;;;;;;;7.33;6.57;;;9.30;99.90;;;;;;5091367;28;20268;-75
2023/03/20 08:19:37;;;;;;;6.43;5.83;;;9.40;99.90;;;;;;5091777;28;20203;-76
2023/03/20 08:22:05;;;;;;;8.10;6.53;;;9.50;99.90;;;;;;5090185;28;20596;-76
2023/03/20 08:24:34;;;;;;;7.57;6.70;;;9.60;99.90;;;;;;5091587;28;20669;-77
2023/03/20 08:27:03;;;;;;;8.03;6.40;;;9.70;99.90;;;;;;5091927;28;20277;-78
2023/03/20 08:29:31;;;;;;;6.87;6.17;;;9.80;99.90;;;;;;5095446;28;20949;-77
2023/03/20 08:31:59;;;;;;;6.60;5.90;;;9.90;99.90;;;;;;5094626;28;20211;-76
2023/03/20 08:34:27;;;;;;;6.67;5.90;;;10.00;99.90;;;;;;5095221;28;20570;-78
2023/03/20 08:36:55;;;;;;;6.57;5.67;;;10.20;99.90;;;;;;5095059;28;20234;-76
2023/03/20 08:39:23;;;;;;;7.00;5.80;;;10.10;99.90;;;;;;5093965;28;20218;-78
2023/03/20 08:41:53;;;;;;;6.37;5.73;;;10.20;99.90;;;;;;5094812;28;20235;-76
2023/03/20 08:44:21;;;;;;;7.30;5.87;;;10.50;99.90;;;;;;5094578;28;20214;-77
2023/03/20 08:46:49;;;;;;;6.50;5.60;;;10.80;99.90;;;;;;5094450;28;20661;-76
2023/03/20 08:49:17;;;;;;;6.27;5.20;;;10.90;99.90;;;;;;5093838;28;20218;-78
2023/03/20 08:51:45;;;;;;;5.40;4.90;;;11.20;99.90;;;;;;5094239;28;20246;-78
2023/03/20 08:54:17;;;;;;;5.87;4.63;;;11.80;99.90;;;;;;5094406;28;20202;-76
2023/03/20 08:56:45;;;;;;;7.13;4.70;;;12.30;99.90;;;;;;5093395;28;20688;-76
2023/03/20 08:59:15;;;;;;;4.63;4.00;;;13.40;99.90;;;;;;5094168;28;20742;-76
2023/03/20 09:01:43;;;;;;;4.30;3.90;;;15.20;99.90;;;;;;5094124;28;20244;-76
2023/03/20 09:04:17;;;;;;;5.47;4.10;;;16.00;99.90;;;;;;5093299;28;20302;-77
2023/03/20 09:06:46;;;;;;;5.60;3.73;;;17.10;99.90;;;;;;5093995;28;20299;-75
2023/03/20 09:09:17;;;;;;;3.60;3.30;;;18.20;99.90;;;;;;5094258;28;20246;-76
2023/03/20 09:11:45;;;;;;;4.97;3.70;;;19.10;99.90;;;;;;5093980;28;20566;-76
2023/03/20 09:14:15;;;;;;;4.07;3.67;;;19.10;99.90;;;;;;5093292;28;20207;-77
2023/03/20 09:16:43;;;;;;;5.28;3.58;;;19.60;99.90;;;;;;5094294;28;20214;-77
2023/03/20 09:19:11;;;;;;;3.83;3.10;;;21.00;99.90;;;;;;5094142;28;20745;-77
2023/03/20 09:21:39;;;;;;;3.78;3.47;;;21.00;99.10;;;;;;5093635;28;20336;-76
2023/03/20 09:24:08;;;;;;;6.50;5.87;;;19.50;99.90;;;;;;5093147;28;20276;-75
2023/03/20 09:26:36;;;;;;;5.17;3.70;;;18.00;99.90;;;;;;5093873;28;20314;-76
2023/03/20 09:29:04;;;;;;;3.90;3.50;;;17.80;99.90;;;;;;5093791;28;20207;-77
2023/03/20 09:31:34;;;;;;;4.43;3.70;;;17.10;99.90;;;;;;5092759;28;20214;-75
2023/03/20 09:34:02;;;;;;;5.57;4.17;;;16.50;99.90;;;;;;5093468;28;20289;-76
2023/03/20 09:36:31;;;;;;;3.90;3.60;;;16.10;99.90;;;;;;5094032;28;20218;-77
2023/03/20 09:38:59;;;;;;;4.13;3.73;;;16.20;99.90;;;;;;5093243;28;20222;-76
2023/03/20 09:41:27;;;;;;;4.03;3.40;;;16.60;99.90;;;;;;5084212;28;20242;-77
2023/03/20 09:44:09;;;;;;;3.47;3.17;;;17.40;99.90;;;;;;5093043;28;20656;-76
2023/03/20 09:46:57;;;;;;;3.97;3.57;;;18.00;99.90;;;;;;5091922;28;20632;-75
2023/03/20 09:49:54;;;;;;;6.33;3.50;;;17.10;99.90;;;;;;5092880;28;20219;-77
2023/03/20 09:52:27;;;;;;;3.97;3.50;;;16.20;99.90;;;;;;5093184;28;20206;-79
2023/03/20 09:55:01;;;;;;;4.33;3.77;;;15.50;99.90;;;;;;5093380;28;20256;-77
2023/03/20 09:57:35;;;;;;;4.10;3.70;;;14.90;99.90;;;;;;5092721;28;20219;-78
2023/03/20 10:00:09;;;;;;;4.57;3.87;;;14.50;99.90;;;;;;5093350;28;20193;-77
2023/03/20 10:02:46;;;;;;;5.57;3.83;;;14.10;99.90;;;;;;5076052;28;20257;-77
2023/03/20 10:05:22;;;;;;;3.67;3.07;;;13.70;99.90;;;;;;5072760;28;20692;-76
2023/03/20 10:07:53;;;;;;;4.07;3.37;;;13.40;99.90;;;;;;5092632;28;20221;-78
2023/03/20 10:10:27;;;;;;;4.67;3.73;;;13.10;99.90;;;;;;5093623;28;20249;-77
2023/03/20 10:13:12;;;;;;;5.20;3.93;;;12.80;99.90;;;;;;5092901;28;20271;-78
2023/03/20 10:15:48;;;;;;;4.60;3.70;;;12.60;99.90;;;;;;5092161;28;20565;-77
2023/03/20 10:18:25;;;;;;;6.00;3.90;;;12.50;99.90;;;;;;5092796;28;20214;-78
2023/03/20 10:20:57;;;;;;;4.80;3.87;;;12.30;99.90;;;;;;5092535;28;20187;-77
2023/03/20 10:23:33;;;;;;;4.40;3.50;;;13.30;99.90;;;;;;5076940;28;20249;-76
2023/03/20 10:26:06;;;;;;;3.40;2.90;;;14.90;99.90;;;;;;5072748;28;20223;-78
2023/03/20 10:28:41;;;;;;;6.57;2.73;;;16.00;99.90;;;;;;5072736;28;20220;-76
2023/03/20 10:31:26;;;;;;;3.13;2.50;;;16.00;99.90;;;;;;5077390;28;20727;-75
2023/03/20 10:34:11;;;;;;;3.80;2.37;;;16.50;99.90;;;;;;5093110;28;20189;-76
2023/03/20 10:36:53;;;;;;;2.93;2.60;;;16.30;99.90;;;;;;5092685;28;20219;-77
2023/03/20 10:39:34;;;;;;;2.83;2.53;;;16.60;99.90;;;;;;5091747;28;20217;-77
2023/03/20 10:42:09;;;;;;;2.20;2.00;;;16.50;99.90;;;;;;5092288;28;20199;-77
2023/03/20 10:44:41;;;;;;;3.30;2.40;;;16.20;99.90;;;;;;5092719;28;20501;-78
2023/03/20 10:47:15;;;;;;;3.07;2.67;;;16.10;99.90;;;;;;5092304;28;20215;-76
2023/03/20 10:49:50;;;;;;;3.57;2.43;;;15.80;99.90;;;;;;5091537;28;20207;-76
2023/03/20 10:52:25;;;;;;;2.53;2.33;;;15.60;99.90;;;;;;5091074;28;20581;-77
2023/03/20 10:54:57;;;;;;;2.87;2.40;;;15.00;99.90;;;;;;5092423;28;20194;-76
2023/03/20 10:57:30;;;;;;;2.57;2.20;;;14.80;99.90;;;;;;5091203;28;20225;-76
2023/03/20 10:59:59;;;;;;;2.53;2.30;;;14.80;99.90;;;;;;5092009;28;20577;-77
2023/03/20 11:02:30;;;;;;;2.33;2.13;;;15.00;99.90;;;;;;5091701;28;20294;-76
2023/03/20 11:05:02;;;;;;;2.80;2.50;;;16.20;99.90;;;;;;5092102;28;20264;-76
2023/03/20 11:07:34;;;;;;;2.70;2.33;;;17.10;99.90;;;;;;5091465;28;20207;-78
2023/03/20 11:10:11;;;;;;;2.63;2.30;;;17.00;99.90;;;;;;5092163;28;20218;-77
2023/03/20 11:12:41;;;;;;;3.80;2.20;;;17.00;99.90;;;;;;5091552;28;20278;-76
2023/03/20 11:15:21;;;;;;;2.30;2.10;;;16.90;99.90;;;;;;5091754;28;20205;-77
2023/03/20 11:17:56;;;;;;;2.13;1.90;;;16.80;99.90;;;;;;5091175;28;20589;-76
2023/03/20 11:20:32;;;;;;;2.87;1.90;;;17.60;99.90;;;;;;5092332;28;20572;-77
2023/03/20 11:23:04;;;;;;;2.00;1.90;;;18.60;99.90;;;;;;5091590;28;20234;-77
2023/03/20 11:25:34;;;;;;;1.80;1.70;;;19.20;99.90;;;;;;5092110;28;20217;-76
2023/03/20 11:28:30;;;;;;;1.63;1.53;;;19.80;99.90;;;;;;5091521;28;20210;-77
2023/03/20 11:31:00;;;;;;;1.63;1.50;;;20.30;99.30;;;;;;5091668;28;20217;-75
2023/03/20 11:33:34;;;;;;;1.50;1.40;;;21.10;95.70;;;;;;5091429;28;20191;-76
2023/03/20 11:36:11;;;;;;;1.60;1.50;;;22.00;91.50;;;;;;5090613;28;20696;-76
2023/03/20 11:38:44;;;;;;;1.37;1.37;;;21.20;91.30;;;;;;5091733;28;20226;-77
2023/03/20 11:41:18;;;;;;;2.60;1.77;;;20.50;91.10;;;;;;5091927;28;20217;-77
2023/03/20 11:43:46;;;;;;;1.60;1.50;;;20.90;91.90;;;;;;5090641;28;20221;-76
2023/03/20 11:46:14;;;;;;;2.67;1.70;;;19.70;92.10;;;;;;5091418;28;20690;-77
2023/03/20 11:48:46;;;;;;;1.93;1.80;;;18.30;94.30;;;;;;5091820;28;20203;-76
2023/03/20 11:51:18;;;;;;;3.97;2.30;;;17.50;96.20;;;;;;5091752;28;20195;-77
2023/03/20 11:54:00;;;;;;;2.60;2.30;;;16.70;98.20;;;;;;5090742;28;20211;-77
2023/03/20 11:56:31;;;;;;;3.17;1.80;;;15.90;99.90;;;;;;5091900;28;20273;-76
2023/03/20 11:59:03;;;;;;;2.20;2.00;;;15.50;99.90;;;;;;5090382;28;20235;-77
2023/03/20 12:01:43;;;;;;;1.90;1.80;;;16.40;99.90;;;;;;5091564;28;20205;-76
2023/03/20 12:04:13;;;;;;;1.63;1.53;;;17.10;99.90;;;;;;5094979;28;20194;-77
2023/03/20 12:06:48;;;;;;;1.80;1.70;;;17.60;99.90;;;;;;5094854;28;20219;-76
2023/03/20 12:09:29;;;;;;;2.03;1.93;;;17.70;99.60;;;;;;5095451;28;20202;-76
2023/03/20 12:12:01;;;;;;;2.37;2.17;;;17.20;99.60;;;;;;5095091;28;20199;-77
2023/03/20 12:14:37;;;;;;;2.47;1.97;;;16.90;99.70;;;;;;5094796;28;20605;-77
2023/03/20 12:17:30;;;;;;;2.40;2.20;;;16.40;99.90;;;;;;5095182;28;20625;-77
2023/03/20 12:20:04;;;;;;;2.30;2.10;;;16.10;99.90;;;;;;5094830;28;20244;-76
2023/03/20 12:22:37;;;;;;;2.20;2.00;;;15.80;99.90;;;;;;5094885;28;20201;-77
2023/03/20 12:25:17;;;;;;;2.80;2.10;;;15.70;99.90;;;;;;5094643;28;20207;-77
2023/03/20 12:27:50;;;;;;;3.53;2.40;;;15.50;99.90;;;;;;5095625;28;20273;-78
2023/03/20 12:30:26;;;;;;;3.53;2.50;;;15.50;99.90;;;;;;5097295;28;20258;-77
2023/03/20 12:33:00;;;;;;;4.30;2.10;;;15.40;99.90;;;;;;5101156;28;20285;-75
2023/03/20 12:35:30;;;;;;;2.43;1.83;;;15.00;99.90;;;;;;5095260;28;20230;-78
2023/03/20 12:37:59;;;;;;;2.50;2.00;;;14.70;99.90;;;;;;5094781;28;20211;-77
2023/03/20 12:40:36;;;;;;;4.40;2.27;;;14.30;99.90;;;;;;5094306;28;20241;-76
2023/03/20 12:43:10;;;;;;;3.63;2.17;;;14.00;99.90;;;;;;5092987;28;20624;-77
2023/03/20 12:45:41;;;;;;;3.20;2.00;;;13.80;99.90;;;;;;5094663;28;20198;-76
2023/03/20 12:48:35;;;;;;;1.93;1.80;;;13.70;99.90;;;;;;5094765;28;20192;-77
2023/03/20 12:51:09;;;;;;;2.00;1.90;;;13.60;99.90;;;;;;5094077;28;20203;-77
2023/03/20 12:53:53;;;;;;;2.20;1.80;;;13.50;99.90;;;;;;5094234;28;20210;-77
2023/03/20 12:56:34;;;;;;;2.67;1.97;;;13.40;99.90;;;;;;5094448;28;20214;-78
2023/03/20 12:59:08;;;;;;;1.80;1.70;;;13.40;99.90;;;;;;5093877;28;20222;-77
2023/03/20 13:01:45;;;;;;;2.50;1.80;;;13.20;99.90;;;;;;5094267;28;20229;-76
2023/03/20 13:04:43;;;;;;;2.27;1.90;;;13.20;99.90;;;;;;5093954;28;20195;-76
2023/03/20 13:07:19;;;;;;;1.60;1.50;;;13.20;99.90;;;;;;5094192;28;20282;-77
2023/03/20 13:10:07;;;;;;;1.57;1.40;;;13.20;99.90;;;;;;5093392;28;20209;-77
2023/03/20 13:12:45;;;;;;;1.37;1.27;;;13.30;99.90;;;;;;5093836;28;20213;-77
2023/03/20 13:15:23;;;;;;;1.40;1.30;;;13.40;99.90;;;;;;5093046;28;20191;-75
2023/03/20 13:17:56;;;;;;;2.80;1.57;;;13.50;99.90;;;;;;5092893;28;20255;-78
2023/03/20 13:20:26;;;;;;;2.00;1.30;;;13.40;99.90;;;;;;5093802;28;20747;-75